Asotin, Washington
Current Conditions -  °F | °C
As of 7:56 PM on Tuesday 25 Nov 2014 (Local Time) from KLWS Reporting Station
Overcast Overcast  
Wind Chill: 39°   Ceiling: 1100
Heat Index: 43°   Visibility: 10mi
Dew Point: 41°   Wind: 6mph
Humidity: 93%   Direction: 60°ENE
Pressure: 30.18"   Gusts: NA
Location:  46.34°N, 117.05°W
Report Text: KLWS 260356Z 06005KT 10SM OVC011 06/05 A3018 RMK AO2 RAE24 SLP229 P0002 T00610050
Loading
Personal Weather Stations






























Interactive Weather Map New forecast layout! Learn more

10-Day Weather Forecast

Advertisements
Track Severe Weather on mobile